Time;durP1;ratioP1;P1;durP2;ratioP2;P2;SDS_P1;SDS_P2;PMS_P1;PMS_P2;Temp;Humidity;BMP_temperature;BMP_pressure;BME280_temperature;BME280_humidity;BME280_pressure;Samples;Min_cycle;Max_cycle;Signal;HPM_P1;HPM_P2
2022/04/21 00:00:40;;;;;;;74.47;50.50;;;;;;;;;;5017090;28;20025;-94
2022/04/21 00:03:07;;;;;;;64.63;46.33;;;;;;;;;;5014541;28;20030;-95
2022/04/21 00:05:39;;;;;;;69.55;48.22;;;;;;;;;;5031877;28;20087;-96
2022/04/21 00:08:05;;;;;;;69.13;48.92;;;;;;;;;;5026809;28;20044;-95
2022/04/21 00:10:31;;;;;;;69.10;47.25;;;;;;;;;;5044659;28;20030;-95
2022/04/21 00:12:58;;;;;;;69.97;45.60;;;;;;;;;;5025549;28;20033;-95
2022/04/21 00:15:25;;;;;;;70.97;46.42;;;;;;;;;;5010517;28;20076;-95
2022/04/21 00:17:52;;;;;;;65.10;47.28;;;;;;;;;;5027688;28;20030;-92
2022/04/21 00:20:18;;;;;;;66.53;46.47;;;;;;;;;;5010146;28;20679;-91
2022/04/21 00:25:30;;;;;;;64.25;43.10;;;;;;;;;;5027802;28;20048;-95
2022/04/21 00:27:56;;;;;;;63.17;45.72;;;;;;;;;;5008562;28;20046;-94
2022/04/21 00:30:23;;;;;;;68.25;48.80;;;;;;;;;;5006387;28;20040;-92
2022/04/21 00:32:49;;;;;;;68.90;47.05;;;;;;;;;;5010832;28;20454;-93
2022/04/21 00:35:16;;;;;;;67.38;46.85;;;;;;;;;;5012750;28;20049;-93
2022/04/21 00:37:51;;;;;;;65.97;46.33;;;;;;;;;;5002428;28;20084;-94
2022/04/21 00:40:18;;;;;;;62.28;45.03;;;;;;;;;;5021344;28;20128;-93
2022/04/21 00:42:45;;;;;;;59.25;43.25;;;;;;;;;;5010297;28;20048;-93
2022/04/21 00:45:12;;;;;;;59.50;44.35;;;;;;;;;;5024126;28;20128;-92
2022/04/21 00:47:42;;;;;;;62.65;44.22;;;;;;;;;;5011288;28;20484;-92
2022/04/21 00:50:09;;;;;;;62.45;44.60;;;;;;;;;;5004892;28;20061;-93
2022/04/21 00:52:36;;;;;;;60.03;42.90;;;;;;;;;;5009344;28;20041;-94
2022/04/21 00:55:02;;;;;;;60.13;43.35;;;;;;;;;;5028636;28;20037;-94
2022/04/21 00:57:29;;;;;;;58.65;42.70;;;;;;;;;;5022311;28;20053;-92
2022/04/21 00:59:55;;;;;;;62.63;44.47;;;;;;;;;;5025720;28;20045;-95
2022/04/21 01:05:10;;;;;;;62.85;45.20;;;;;;;;;;5026629;28;20091;-93
2022/04/21 01:07:37;;;;;;;60.28;43.72;;;;;;;;;;5030337;28;20033;-94
2022/04/21 01:10:03;;;;;;;64.28;45.83;;;;;;;;;;5009217;28;20041;-93
2022/04/21 01:12:30;;;;;;;61.08;44.47;;;;;;;;;;5008458;28;20492;-93
2022/04/21 01:14:56;;;;;;;57.63;43.03;;;;;;;;;;5009590;28;20029;-95
2022/04/21 01:17:33;;;;;;;62.30;44.67;;;;;;;;;;5003883;28;20064;-94
2022/04/21 01:20:00;;;;;;;64.07;44.85;;;;;;;;;;5004610;28;20041;-95
2022/04/21 01:22:26;;;;;;;58.38;42.75;;;;;;;;;;5009688;28;20108;-96
2022/04/21 01:24:53;;;;;;;62.08;44.10;;;;;;;;;;5011195;28;20065;-95
2022/04/21 01:27:23;;;;;;;64.80;46.20;;;;;;;;;;5007378;28;20124;-94
2022/04/21 01:29:50;;;;;;;65.00;46.60;;;;;;;;;;5005069;28;20129;-93
2022/04/21 01:32:16;;;;;;;63.55;44.47;;;;;;;;;;5008480;28;20048;-93
2022/04/21 01:34:42;;;;;;;61.20;45.28;;;;;;;;;;5001447;28;20029;-94
2022/04/21 01:42:38;;;;;;;68.57;48.13;;;;;;;;;;5031112;28;20111;-92
2022/04/21 01:45:08;;;;;;;77.78;52.38;;;;;;;;;;5018931;28;20026;-94
2022/04/21 01:47:34;;;;;;;67.85;45.92;;;;;;;;;;5001503;28;20038;-94
2022/04/21 01:50:07;;;;;;;62.22;44.78;;;;;;;;;;5010838;28;20033;-90
2022/04/21 01:52:34;;;;;;;62.85;44.63;;;;;;;;;;5000458;28;20239;-95
2022/04/21 01:55:00;;;;;;;59.70;43.33;;;;;;;;;;5016457;28;20484;-93
2022/04/21 01:57:27;;;;;;;61.10;45.45;;;;;;;;;;5006044;28;20132;-92
2022/04/21 01:59:53;;;;;;;59.78;44.40;;;;;;;;;;5006286;28;20040;-94
2022/04/21 02:02:19;;;;;;;58.42;44.13;;;;;;;;;;5008335;28;20054;-92
2022/04/21 02:04:46;;;;;;;59.13;42.35;;;;;;;;;;5005046;28;20037;-94
2022/04/21 02:07:14;;;;;;;62.00;44.72;;;;;;;;;;5028409;28;20025;-94
2022/04/21 02:09:40;;;;;;;58.45;41.92;;;;;;;;;;5032232;28;20068;-94
2022/04/21 02:12:07;;;;;;;50.30;38.60;;;;;;;;;;5001551;28;20034;-94
2022/04/21 02:14:37;;;;;;;51.05;40.60;;;;;;;;;;5017965;28;20041;-94
2022/04/21 02:17:05;;;;;;;58.90;39.97;;;;;;;;;;5014138;28;20033;-94
2022/04/21 02:19:32;;;;;;;50.88;37.95;;;;;;;;;;5018945;28;20132;-95
2022/04/21 02:21:59;;;;;;;57.33;40.33;;;;;;;;;;5019893;28;20029;-91
2022/04/21 02:24:25;;;;;;;54.13;38.58;;;;;;;;;;5020826;28;20084;-94
2022/04/21 02:26:52;;;;;;;50.97;36.42;;;;;;;;;;5012322;28;20152;-94
2022/04/21 02:29:18;;;;;;;51.90;35.97;;;;;;;;;;5000613;28;20057;-93
2022/04/21 02:31:45;;;;;;;50.92;36.95;;;;;;;;;;5008955;28;20103;-94
2022/04/21 02:34:11;;;;;;;54.63;37.65;;;;;;;;;;5006191;28;20026;-94
2022/04/21 02:36:38;;;;;;;54.53;39.65;;;;;;;;;;5020099;28;20025;-93
2022/04/21 02:39:05;;;;;;;48.90;37.53;;;;;;;;;;5014380;28;20113;-94
2022/04/21 02:41:32;;;;;;;51.55;36.63;;;;;;;;;;5007688;28;20584;-94
2022/04/21 02:43:59;;;;;;;53.47;37.40;;;;;;;;;;5030100;28;20033;-95
2022/04/21 02:49:48;;;;;;;56.85;35.83;;;;;;;;;;5017605;28;20092;-91
2022/04/21 02:52:15;;;;;;;46.90;33.33;;;;;;;;;;5016282;28;20076;-91
2022/04/21 02:57:30;;;;;;;43.97;31.80;;;;;;;;;;5025961;28;20088;-92
2022/04/21 02:59:58;;;;;;;47.15;32.92;;;;;;;;;;5001604;28;20058;-94
2022/04/21 03:02:25;;;;;;;43.05;31.55;;;;;;;;;;5012249;28;20029;-94
2022/04/21 03:04:52;;;;;;;41.55;29.45;;;;;;;;;;5012217;28;20029;-95
2022/04/21 03:07:22;;;;;;;39.85;29.42;;;;;;;;;;5027143;28;20472;-92
2022/04/21 03:09:50;;;;;;;44.55;31.50;;;;;;;;;;5028155;28;20041;-94
2022/04/21 03:12:17;;;;;;;39.20;27.75;;;;;;;;;;5000989;28;20392;-93
2022/04/21 03:14:43;;;;;;;43.00;29.60;;;;;;;;;;5000983;28;20105;-93
2022/04/21 03:17:11;;;;;;;42.42;31.95;;;;;;;;;;5017195;28;20034;-93
2022/04/21 03:19:38;;;;;;;44.22;32.15;;;;;;;;;;5032323;28;20040;-93
2022/04/21 03:24:51;;;;;;;47.60;36.13;;;;;;;;;;5036109;28;20037;-93
2022/04/21 03:27:17;;;;;;;52.25;37.33;;;;;;;;;;5019075;28;20036;-92
2022/04/21 03:29:44;;;;;;;52.78;37.78;;;;;;;;;;5019264;28;20119;-94
2022/04/21 03:32:13;;;;;;;51.38;38.17;;;;;;;;;;5018521;28;20040;-95
2022/04/21 03:34:43;;;;;;;57.03;38.88;;;;;;;;;;5018900;28;20029;-95
2022/04/21 03:37:13;;;;;;;55.22;38.28;;;;;;;;;;5036494;28;20042;-94
2022/04/21 03:39:39;;;;;;;51.80;37.38;;;;;;;;;;5018605;28;20048;-93
2022/04/21 03:42:07;;;;;;;60.40;42.08;;;;;;;;;;5019410;28;20063;-94
2022/04/21 03:44:34;;;;;;;58.13;41.40;;;;;;;;;;5018846;28;20033;-95
2022/04/21 03:47:01;;;;;;;50.78;36.80;;;;;;;;;;5018654;28;20067;-94
2022/04/21 03:49:29;;;;;;;49.55;36.50;;;;;;;;;;5018636;28;20087;-95
2022/04/21 03:51:56;;;;;;;53.35;36.30;;;;;;;;;;5035504;28;20053;-93
2022/04/21 03:54:26;;;;;;;49.95;37.25;;;;;;;;;;5035944;28;20375;-95
2022/04/21 03:56:55;;;;;;;50.22;37.70;;;;;;;;;;5035778;28;20073;-94
2022/04/21 03:59:23;;;;;;;50.53;35.90;;;;;;;;;;5018807;28;20120;-95
2022/04/21 04:01:51;;;;;;;49.28;34.53;;;;;;;;;;5018197;28;20040;-94
2022/04/21 04:04:18;;;;;;;53.97;36.58;;;;;;;;;;5018255;28;20488;-95
2022/04/21 04:12:14;;;;;;;44.72;32.85;;;;;;;;;;5035878;28;20060;-94
2022/04/21 04:14:47;;;;;;;45.90;30.88;;;;;;;;;;5018893;28;20132;-95
2022/04/21 04:17:14;;;;;;;47.10;31.63;;;;;;;;;;5019595;28;20029;-95
2022/04/21 04:19:41;;;;;;;47.65;34.95;;;;;;;;;;5005894;28;20062;-95
2022/04/21 04:22:07;;;;;;;45.70;32.25;;;;;;;;;;5012127;28;20120;-95
2022/04/21 04:24:34;;;;;;;50.25;34.08;;;;;;;;;;5027203;28;20052;-95
2022/04/21 04:27:00;;;;;;;128.52;55.60;;;;;;;;;;5009506;28;20033;-94
2022/04/21 04:29:26;;;;;;;41.13;33.65;;;;;;;;;;5014428;28;20052;-94
2022/04/21 04:31:53;;;;;;;111.00;52.22;;;;;;;;;;4995007;28;20050;-93
2022/04/21 04:34:23;;;;;;;51.97;35.22;;;;;;;;;;5007652;28;20064;-96
2022/04/21 04:36:50;;;;;;;55.33;36.60;;;;;;;;;;5013210;28;20036;-95
2022/04/21 04:39:17;;;;;;;50.38;36.00;;;;;;;;;;5016776;28;20042;-93
2022/04/21 04:44:35;;;;;;;56.55;38.10;;;;;;;;;;4994920;28;20041;-92
2022/04/21 04:47:03;;;;;;;52.60;37.92;;;;;;;;;;4659418;28;10000566;-94
2022/04/21 04:49:29;;;;;;;53.10;38.65;;;;;;;;;;5013126;28;20096;-92
2022/04/21 04:51:55;;;;;;;58.38;38.92;;;;;;;;;;5020711;28;20049;-95
2022/04/21 04:54:22;;;;;;;55.67;40.05;;;;;;;;;;5012031;28;20777;-92
2022/04/21 04:56:48;;;;;;;56.40;40.83;;;;;;;;;;4652745;28;9999641;-90
2022/04/21 04:59:15;;;;;;;57.70;40.75;;;;;;;;;;5007719;28;20128;-91
2022/04/21 05:01:42;;;;;;;57.25;40.75;;;;;;;;;;5029136;28;20087;-91
2022/04/21 05:04:10;;;;;;;68.30;46.70;;;;;;;;;;5009198;28;20091;-93
2022/04/21 05:06:37;;;;;;;65.55;47.75;;;;;;;;;;4998253;28;20566;-91
2022/04/21 05:09:04;;;;;;;67.22;46.10;;;;;;;;;;5010572;28;20484;-90
2022/04/21 05:11:31;;;;;;;67.63;47.50;;;;;;;;;;5014380;28;20041;-89
2022/04/21 05:13:57;;;;;;;68.00;48.03;;;;;;;;;;5012898;28;20029;-88
2022/04/21 05:16:24;;;;;;;67.78;48.40;;;;;;;;;;5015494;28;20032;-93
2022/04/21 05:18:50;;;;;;;65.10;48.00;;;;;;;;;;5013885;28;20076;-91
2022/04/21 05:21:17;;;;;;;65.75;46.88;;;;;;;;;;4657571;28;10000566;-90
2022/04/21 05:23:45;;;;;;;65.50;47.33;;;;;;;;;;5020001;28;20372;-91
2022/04/21 05:26:30;;;;;;;65.85;47.47;;;;;;;;;;5014637;28;20035;-91
2022/04/21 05:28:57;;;;;;;66.72;47.08;;;;;;;;;;5015136;28;20045;-93
2022/04/21 05:31:24;;;;;;;63.45;45.50;;;;;;;;;;5015797;28;20523;-93
2022/04/21 05:33:50;;;;;;;66.40;47.05;;;;;;;;;;5016860;28;20156;-90
2022/04/21 05:36:17;;;;;;;62.42;47.08;;;;;;;;;;5033514;28;20439;-93
2022/04/21 05:38:43;;;;;;;60.38;46.50;;;;;;;;;;5016931;28;20107;-90
2022/04/21 05:41:13;;;;;;;67.93;47.90;;;;;;;;;;5034266;28;20049;-91
2022/04/21 05:44:01;;;;;;;63.13;47.45;;;;;;;;;;5016964;28;20045;-91
2022/04/21 05:46:27;;;;;;;62.97;45.17;;;;;;;;;;5017716;28;20080;-91
2022/04/21 05:48:54;;;;;;;65.22;44.35;;;;;;;;;;5020593;28;20480;-92
2022/04/21 05:51:21;;;;;;;54.80;42.30;;;;;;;;;;5020595;28;20440;-92
2022/04/21 05:53:48;;;;;;;63.10;45.28;;;;;;;;;;5007450;28;20476;-90
2022/04/21 05:56:16;;;;;;;63.35;46.28;;;;;;;;;;5001016;28;20069;-92
2022/04/21 05:58:42;;;;;;;66.03;48.80;;;;;;;;;;5001023;28;20128;-91
2022/04/21 06:01:09;;;;;;;70.47;51.00;;;;;;;;;;5018152;28;20081;-90
2022/04/21 06:03:42;;;;;;;67.53;48.70;;;;;;;;;;5001462;28;20038;-91
2022/04/21 06:06:09;;;;;;;72.53;49.92;;;;;;;;;;5001022;28;20029;-93
2022/04/21 06:08:36;;;;;;;69.05;45.60;;;;;;;;;;5018126;28;20038;-91
2022/04/21 06:11:17;;;;;;;62.13;43.50;;;;;;;;;;5000746;28;20034;-92
2022/04/21 06:13:43;;;;;;;65.28;44.28;;;;;;;;;;5000659;28;20034;-94
2022/04/21 06:16:10;;;;;;;60.85;44.05;;;;;;;;;;5000612;28;20056;-90
2022/04/21 06:19:07;;;;;;;60.55;43.80;;;;;;;;;;5008127;28;20065;-92
2022/04/21 06:21:34;;;;;;;53.47;38.55;;;;;;;;;;5020557;28;20045;-91
2022/04/21 06:24:01;;;;;;;48.90;36.15;;;;;;;;;;5037594;28;20029;-93
2022/04/21 06:26:46;;;;;;;61.88;43.60;;;;;;;;;;5020136;28;20033;-91
2022/04/21 06:29:12;;;;;;;61.67;44.38;;;;;;;;;;5019524;28;20041;-90
2022/04/21 06:31:38;;;;;;;63.20;43.55;;;;;;;;;;5020306;28;20032;-90
2022/04/21 06:34:05;;;;;;;55.53;41.10;;;;;;;;;;5020232;28;20097;-91
2022/04/21 06:36:32;;;;;;;55.78;39.17;;;;;;;;;;5020151;28;20038;-91
2022/04/21 06:38:58;;;;;;;62.17;42.28;;;;;;;;;;5037238;28;20037;-90
2022/04/21 06:41:25;;;;;;;52.80;38.47;;;;;;;;;;5023402;28;20053;-92
2022/04/21 06:49:22;;;;;;;64.90;44.65;;;;;;;;;;5036887;28;20550;-92
2022/04/21 06:52:21;;;;;;;60.15;43.33;;;;;;;;;;5037325;28;20049;-91
2022/04/21 06:54:48;;;;;;;54.97;42.40;;;;;;;;;;5019860;28;20026;-91
2022/04/21 06:57:14;;;;;;;60.03;45.17;;;;;;;;;;5019664;28;20037;-93
2022/04/21 06:59:53;;;;;;;69.05;46.67;;;;;;;;;;5019361;28;20029;-90
2022/04/21 07:02:27;;;;;;;73.88;46.95;;;;;;;;;;5019298;28;20037;-92
2022/04/21 07:05:13;;;;;;;75.40;51.92;;;;;;;;;;5031152;28;20050;-91
2022/04/21 07:07:40;;;;;;;75.80;52.78;;;;;;;;;;5002076;28;20030;-92
2022/04/21 07:10:07;;;;;;;77.38;50.72;;;;;;;;;;4999787;28;20053;-91
2022/04/21 07:12:34;;;;;;;68.15;47.53;;;;;;;;;;4999817;28;20034;-92
2022/04/21 07:15:01;;;;;;;71.22;52.45;;;;;;;;;;5012819;28;20030;-92
2022/04/21 07:17:28;;;;;;;77.40;52.30;;;;;;;;;;4999629;28;20088;-92
2022/04/21 07:20:02;;;;;;;74.65;55.03;;;;;;;;;;4999282;28;20489;-91
2022/04/21 07:22:29;;;;;;;80.38;56.95;;;;;;;;;;4999505;28;20176;-91
2022/04/21 07:24:56;;;;;;;76.93;54.03;;;;;;;;;;4999740;28;20527;-93
2022/04/21 07:27:23;;;;;;;83.38;56.22;;;;;;;;;;4999507;28;20080;-91
2022/04/21 07:29:56;;;;;;;79.22;59.00;;;;;;;;;;4999534;28;20184;-91
2022/04/21 07:32:22;;;;;;;77.50;56.88;;;;;;;;;;5016778;28;20046;-91
2022/04/21 07:34:49;;;;;;;73.13;54.03;;;;;;;;;;4999235;28;20034;-94
2022/04/21 07:37:15;;;;;;;73.40;54.72;;;;;;;;;;4999470;28;20037;-92
2022/04/21 07:39:42;;;;;;;76.97;55.75;;;;;;;;;;4998931;28;20121;-91
2022/04/21 07:42:09;;;;;;;74.63;54.45;;;;;;;;;;5000084;28;20037;-91
2022/04/21 07:44:39;;;;;;;73.85;55.05;;;;;;;;;;4999147;28;20069;-92
2022/04/21 07:50:16;;;;;;;78.95;55.42;;;;;;;;;;5016227;28;20050;-91
2022/04/21 07:55:48;;;;;;;83.25;53.47;;;;;;;;;;5016535;28;20622;-91
2022/04/21 08:01:30;;;;;;;76.50;54.65;;;;;;;;;;5016342;28;20408;-92
2022/04/21 08:04:02;;;;;;;74.32;55.03;;;;;;;;;;4998816;28;20574;-93
2022/04/21 08:06:31;;;;;;;77.75;54.05;;;;;;;;;;4999071;28;20489;-93
2022/04/21 08:08:58;;;;;;;70.35;53.17;;;;;;;;;;5015694;28;20056;-91
2022/04/21 08:11:25;;;;;;;71.93;52.55;;;;;;;;;;4999100;28;20041;-93
2022/04/21 08:13:51;;;;;;;73.80;53.53;;;;;;;;;;4998567;28;20041;-91
2022/04/21 08:16:18;;;;;;;75.80;55.88;;;;;;;;;;4998624;28;20033;-91
2022/04/21 08:18:50;;;;;;;77.63;56.28;;;;;;;;;;5001996;28;20032;-90
2022/04/21 08:21:18;;;;;;;75.00;54.55;;;;;;;;;;5018421;28;20033;-91
2022/04/21 08:23:46;;;;;;;76.07;55.47;;;;;;;;;;5018294;28;20029;-93
2022/04/21 08:34:28;;;;;;;54.20;38.47;;;;;;;;;;5022048;28;20037;-94
2022/04/21 08:36:55;;;;;;;52.70;37.70;;;;;;;;;;5016633;28;20030;-94
2022/04/21 08:39:22;;;;;;;57.10;39.45;;;;;;;;;;5012071;28;20109;-92
2022/04/21 08:41:49;;;;;;;52.95;37.97;;;;;;;;;;5017392;28;20057;-93
2022/04/21 08:44:19;;;;;;;55.17;35.17;;;;;;;;;;5001020;28;20120;-93
2022/04/21 08:47:02;;;;;;;50.70;37.50;;;;;;;;;;5015432;28;20432;-94
2022/04/21 08:49:33;;;;;;;58.80;39.20;;;;;;;;;;5007132;28;20046;-95
2022/04/21 08:52:00;;;;;;;47.55;34.95;;;;;;;;;;5016435;28;20388;-93
2022/04/21 08:54:27;;;;;;;48.35;33.95;;;;;;;;;;5034833;28;20034;-94
2022/04/21 08:56:54;;;;;;;44.95;34.33;;;;;;;;;;5017227;28;20029;-94
2022/04/21 08:59:22;;;;;;;40.00;29.23;;;;;;;;;;5017665;28;20038;-95
2022/04/21 09:01:49;;;;;;;38.97;28.70;;;;;;;;;;5001879;28;20030;-94
2022/04/21 09:04:17;;;;;;;36.70;26.45;;;;;;;;;;5014372;28;20076;-93
2022/04/21 09:06:47;;;;;;;41.05;26.73;;;;;;;;;;5017572;28;20139;-95
2022/04/21 09:09:21;;;;;;;36.38;24.58;;;;;;;;;;5016947;28;20038;-93
2022/04/21 09:11:51;;;;;;;33.72;23.95;;;;;;;;;;5017097;28;20038;-95
2022/04/21 09:14:20;;;;;;;35.65;24.05;;;;;;;;;;5015978;28;20034;-94
2022/04/21 09:17:07;;;;;;;30.33;24.05;;;;;;;;;;5019643;28;20033;-94
2022/04/21 09:19:34;;;;;;;31.92;22.33;;;;;;;;;;5016268;28;20037;-92
2022/04/21 09:24:53;;;;;;;25.63;19.77;;;;;;;;;;5015252;28;20034;-94
2022/04/21 09:27:21;;;;;;;30.20;20.65;;;;;;;;;;4998100;28;20030;-94
2022/04/21 09:29:50;;;;;;;34.55;19.92;;;;;;;;;;5033336;28;20056;-94
2022/04/21 09:32:18;;;;;;;32.47;18.83;;;;;;;;;;5017974;28;20040;-93
2022/04/21 09:34:51;;;;;;;36.65;20.77;;;;;;;;;;5016846;28;20037;-93
2022/04/21 09:37:21;;;;;;;27.27;18.70;;;;;;;;;;5016920;28;20476;-95
2022/04/21 09:39:52;;;;;;;23.50;17.10;;;;;;;;;;5016300;28;20057;-94
2022/04/21 09:42:25;;;;;;;28.15;18.27;;;;;;;;;;5034467;28;20034;-93
2022/04/21 09:47:37;;;;;;;26.83;16.73;;;;;;;;;;5019523;28;20645;-93
2022/04/21 09:50:12;;;;;;;25.60;16.95;;;;;;;;;;5010040;28;20080;-93
2022/04/21 09:52:39;;;;;;;26.15;16.80;;;;;;;;;;5012715;28;20121;-93
2022/04/21 09:55:30;;;;;;;24.13;15.93;;;;;;;;;;5004947;28;20048;-94
2022/04/21 09:58:06;;;;;;;24.58;15.35;;;;;;;;;;5003284;28;20121;-93
2022/04/21 10:00:34;;;;;;;26.55;15.70;;;;;;;;;;5021718;28;20061;-94
2022/04/21 10:03:05;;;;;;;20.95;16.00;;;;;;;;;;5007753;28;20030;-94
2022/04/21 10:05:32;;;;;;;19.73;14.95;;;;;;;;;;5009812;28;20029;-93
2022/04/21 10:08:06;;;;;;;22.67;14.75;;;;;;;;;;5015145;28;20435;-94
2022/04/21 10:10:33;;;;;;;23.40;15.20;;;;;;;;;;5015510;28;20040;-93
2022/04/21 10:13:01;;;;;;;21.47;15.70;;;;;;;;;;4653890;28;10000126;-94
2022/04/21 10:15:30;;;;;;;22.02;14.18;;;;;;;;;;5004973;28;20307;-93
2022/04/21 10:17:57;;;;;;;25.27;17.65;;;;;;;;;;5009941;28;20152;-94
2022/04/21 10:20:25;;;;;;;23.40;16.77;;;;;;;;;;5012164;28;20034;-93
2022/04/21 10:22:53;;;;;;;20.80;15.40;;;;;;;;;;5016170;28;20048;-93
2022/04/21 10:25:23;;;;;;;26.55;16.23;;;;;;;;;;5014882;28;20037;-94
2022/04/21 10:27:50;;;;;;;24.40;16.60;;;;;;;;;;5009275;28;20117;-93
2022/04/21 10:30:29;;;;;;;21.90;14.77;;;;;;;;;;4995977;28;20050;-94
2022/04/21 10:32:57;;;;;;;24.23;15.10;;;;;;;;;;5010683;28;20026;-94
2022/04/21 10:35:23;;;;;;;22.50;14.20;;;;;;;;;;5017825;28;20037;-94
2022/04/21 10:40:55;;;;;;;18.17;14.10;;;;;;;;;;5030424;28;20500;-93
2022/04/21 10:43:22;;;;;;;23.85;14.48;;;;;;;;;;5008178;28;20442;-92
2022/04/21 10:46:05;;;;;;;23.08;14.77;;;;;;;;;;5017872;28;20040;-93
2022/04/21 10:48:44;;;;;;;18.17;13.50;;;;;;;;;;5012189;28;20104;-94
2022/04/21 10:51:11;;;;;;;19.80;13.75;;;;;;;;;;5028911;28;20037;-93
2022/04/21 10:57:29;;;;;;;17.10;13.35;;;;;;;;;;5033363;28;20037;-95
2022/04/21 10:59:32;;;;;;;19.92;14.25;;;;;;;;;;5018119;28;20041;-93
2022/04/21 11:02:11;;;;;;;21.35;14.15;;;;;;;;;;5015009;28;20025;-93
2022/04/21 11:04:38;;;;;;;22.63;14.73;;;;;;;;;;5029903;28;20507;-93
2022/04/21 11:07:12;;;;;;;20.25;13.65;;;;;;;;;;5016759;28;20099;-93
2022/04/21 11:09:38;;;;;;;22.90;14.77;;;;;;;;;;5016515;28;20047;-92
2022/04/21 11:12:05;;;;;;;25.35;16.23;;;;;;;;;;5029108;28;20055;-92
2022/04/21 11:14:33;;;;;;;26.23;14.68;;;;;;;;;;5014344;28;20040;-92
2022/04/21 11:17:01;;;;;;;24.13;15.38;;;;;;;;;;5011686;28;20040;-93
2022/04/21 11:19:31;;;;;;;25.10;15.95;;;;;;;;;;5028065;28;20120;-94
2022/04/21 11:22:02;;;;;;;22.02;15.57;;;;;;;;;;5008657;28;20037;-93
2022/04/21 11:24:49;;;;;;;24.42;15.98;;;;;;;;;;5012615;28;20038;-95
2022/04/21 11:27:15;;;;;;;23.90;16.90;;;;;;;;;;5023690;28;20484;-94
2022/04/21 11:29:42;;;;;;;26.42;16.40;;;;;;;;;;5029195;28;20072;-94
2022/04/21 11:32:09;;;;;;;25.67;16.17;;;;;;;;;;5028477;28;20484;-94
2022/04/21 11:34:35;;;;;;;28.10;15.60;;;;;;;;;;5001959;28;20038;-95
2022/04/21 11:37:05;;;;;;;23.83;14.85;;;;;;;;;;5011666;28;20032;-94
2022/04/21 11:39:32;;;;;;;25.45;15.18;;;;;;;;;;5012753;28;20056;-94
2022/04/21 11:42:01;;;;;;;19.77;14.10;;;;;;;;;;5012473;28;20038;-95
2022/04/21 11:44:28;;;;;;;19.95;14.60;;;;;;;;;;5011355;28;20068;-93
2022/04/21 11:46:54;;;;;;;29.02;14.20;;;;;;;;;;5028163;28;20029;-94
2022/04/21 11:49:24;;;;;;;20.63;15.70;;;;;;;;;;5008692;28;20080;-93
2022/04/21 11:51:54;;;;;;;22.20;15.40;;;;;;;;;;5008091;28;20488;-93
2022/04/21 11:54:21;;;;;;;24.17;15.10;;;;;;;;;;5002857;28;20551;-93
2022/04/21 11:56:51;;;;;;;24.77;16.02;;;;;;;;;;5027738;28;20392;-94
2022/04/21 11:59:35;;;;;;;23.13;14.07;;;;;;;;;;5016527;28;20484;-93
2022/04/21 12:07:54;;;;;;;23.40;13.95;;;;;;;;;;4984962;28;20029;-94
2022/04/21 12:10:21;;;;;;;19.05;12.75;;;;;;;;;;5010131;28;20046;-93
2022/04/21 12:12:48;;;;;;;20.60;13.35;;;;;;;;;;5011439;28;20369;-94
2022/04/21 12:15:23;;;;;;;19.30;12.93;;;;;;;;;;5025179;28;20045;-95
2022/04/21 12:17:51;;;;;;;18.88;13.23;;;;;;;;;;5005610;28;20033;-95
2022/04/21 12:20:21;;;;;;;19.85;12.50;;;;;;;;;;5003833;28;20041;-95
2022/04/21 12:22:50;;;;;;;20.05;12.95;;;;;;;;;;5004859;28;20037;-95
2022/04/21 12:25:16;;;;;;;19.17;13.55;;;;;;;;;;5009585;28;21224;-94
2022/04/21 12:27:44;;;;;;;21.10;13.43;;;;;;;;;;5025033;28;20034;-94
2022/04/21 12:30:11;;;;;;;20.55;13.88;;;;;;;;;;5006292;28;20049;-94
2022/04/21 12:32:39;;;;;;;22.58;13.27;;;;;;;;;;5012978;28;20091;-94
2022/04/21 12:35:10;;;;;;;20.85;12.45;;;;;;;;;;5007963;28;20029;-94
2022/04/21 12:37:37;;;;;;;24.60;13.23;;;;;;;;;;5007912;28;20157;-94
2022/04/21 12:40:08;;;;;;;19.40;12.65;;;;;;;;;;5013785;28;20052;-94
2022/04/21 12:42:35;;;;;;;20.45;13.48;;;;;;;;;;5005836;28;20393;-94
2022/04/21 12:45:02;;;;;;;22.63;14.18;;;;;;;;;;5024079;28;20087;-93
2022/04/21 12:47:29;;;;;;;22.02;13.20;;;;;;;;;;5014014;28;20124;-94
2022/04/21 12:50:00;;;;;;;23.42;13.77;;;;;;;;;;5013417;28;20049;-93
2022/04/21 12:52:50;;;;;;;23.92;14.60;;;;;;;;;;5011720;28;20457;-94
2022/04/21 12:55:21;;;;;;;25.25;15.10;;;;;;;;;;4999465;28;20392;-92
2022/04/21 12:58:06;;;;;;;21.23;13.35;;;;;;;;;;5002937;28;20045;-93
2022/04/21 13:00:33;;;;;;;23.25;13.43;;;;;;;;;;4676182;28;10000063;-94
2022/04/21 13:03:03;;;;;;;22.80;14.55;;;;;;;;;;5007039;28;20044;-94
2022/04/21 13:05:30;;;;;;;21.83;12.70;;;;;;;;;;5030643;28;20034;-95
2022/04/21 13:07:57;;;;;;;20.73;12.75;;;;;;;;;;5008960;28;20097;-95
2022/04/21 13:10:26;;;;;;;21.23;13.35;;;;;;;;;;5021162;28;20045;-95
2022/04/21 13:12:53;;;;;;;20.67;12.90;;;;;;;;;;5017309;28;20041;-94
2022/04/21 13:15:21;;;;;;;21.23;12.98;;;;;;;;;;5002086;28;20048;-93
2022/04/21 13:17:48;;;;;;;19.92;13.07;;;;;;;;;;5005558;28;20034;-94
2022/04/21 13:21:52;;;;;;;24.48;12.63;;;;;;;;;;5009910;28;20072;-95
2022/04/21 13:23:01;;;;;;;19.38;13.23;;;;;;;;;;5030586;28;20491;-94
2022/04/21 13:25:27;;;;;;;21.95;13.20;;;;;;;;;;5006883;28;20034;-94
2022/04/21 13:27:54;;;;;;;22.90;14.85;;;;;;;;;;5001863;28;20069;-95
2022/04/21 13:30:21;;;;;;;22.83;13.25;;;;;;;;;;5008617;28;20041;-95
2022/04/21 13:35:36;;;;;;;20.10;14.10;;;;;;;;;;5027699;28;20103;-94
2022/04/21 13:38:02;;;;;;;23.50;12.77;;;;;;;;;;5001021;28;20480;-94
2022/04/21 13:40:30;;;;;;;18.40;13.10;;;;;;;;;;5021846;28;20053;-94
2022/04/21 13:43:00;;;;;;;23.67;14.88;;;;;;;;;;5005726;28;20068;-95
2022/04/21 13:45:26;;;;;;;24.45;14.27;;;;;;;;;;5001316;28;20618;-94
2022/04/21 13:47:53;;;;;;;23.10;13.02;;;;;;;;;;4999224;28;20885;-96
2022/04/21 13:50:20;;;;;;;21.02;13.85;;;;;;;;;;5004712;28;20054;-94
2022/04/21 13:52:47;;;;;;;21.70;14.15;;;;;;;;;;5023000;28;20033;-96
2022/04/21 13:55:14;;;;;;;25.75;16.48;;;;;;;;;;5006249;28;20128;-95
2022/04/21 13:57:40;;;;;;;24.65;15.60;;;;;;;;;;5007895;28;20389;-95
2022/04/21 14:00:07;;;;;;;25.92;17.52;;;;;;;;;;5010183;28;20033;-95
2022/04/21 14:02:35;;;;;;;31.75;17.67;;;;;;;;;;5008444;28;20030;-94
2022/04/21 14:05:09;;;;;;;27.85;17.25;;;;;;;;;;5025197;28;20030;-94
2022/04/21 14:07:36;;;;;;;27.25;17.85;;;;;;;;;;5005515;28;20092;-95
2022/04/21 14:10:03;;;;;;;28.85;18.95;;;;;;;;;;5011466;28;20546;-95
2022/04/21 14:12:30;;;;;;;29.58;19.30;;;;;;;;;;5012498;28;20117;-95
2022/04/21 14:14:57;;;;;;;26.60;18.15;;;;;;;;;;5034368;28;20124;-94
2022/04/21 14:17:24;;;;;;;31.27;19.20;;;;;;;;;;5010062;28;20079;-93
2022/04/21 14:19:50;;;;;;;35.20;21.10;;;;;;;;;;5008295;28;20072;-94
2022/04/21 14:22:20;;;;;;;38.38;21.95;;;;;;;;;;5013317;28;20550;-94
2022/04/21 14:24:47;;;;;;;37.75;23.33;;;;;;;;;;5028663;28;20084;-94
2022/04/21 14:27:14;;;;;;;40.10;21.83;;;;;;;;;;5011719;28;20046;-94
2022/04/21 14:29:41;;;;;;;31.50;22.58;;;;;;;;;;5009555;28;20045;-94
2022/04/21 14:32:09;;;;;;;34.40;22.90;;;;;;;;;;5003981;28;20058;-94
2022/04/21 14:34:38;;;;;;;39.20;23.27;;;;;;;;;;5003309;28;20052;-93
2022/04/21 14:37:05;;;;;;;38.45;24.00;;;;;;;;;;5008282;28;20033;-94
2022/04/21 14:45:05;;;;;;;38.60;25.75;;;;;;;;;;4988312;28;20030;-95
2022/04/21 14:47:32;;;;;;;39.58;25.30;;;;;;;;;;5017591;28;20128;-94
2022/04/21 14:49:59;;;;;;;38.95;25.33;;;;;;;;;;5018833;28;20046;-94
2022/04/21 14:52:27;;;;;;;45.78;31.13;;;;;;;;;;5034470;28;20108;-95
2022/04/21 14:54:54;;;;;;;52.63;34.60;;;;;;;;;;5008463;28;20029;-94
2022/04/21 14:57:24;;;;;;;54.28;35.25;;;;;;;;;;5030211;28;20033;-93
2022/04/21 14:59:50;;;;;;;51.78;35.42;;;;;;;;;;5016731;28;20073;-95
2022/04/21 15:02:17;;;;;;;45.97;32.20;;;;;;;;;;5003742;28;20054;-94
2022/04/21 15:04:44;;;;;;;42.92;29.55;;;;;;;;;;5017120;28;20057;-94
2022/04/21 15:07:11;;;;;;;42.50;26.15;;;;;;;;;;5003209;28;20042;-94
2022/04/21 15:09:37;;;;;;;37.97;26.08;;;;;;;;;;5011684;28;20107;-94
2022/04/21 15:12:05;;;;;;;42.58;25.60;;;;;;;;;;5015931;28;20065;-93
2022/04/21 15:14:32;;;;;;;38.97;24.77;;;;;;;;;;5006438;28;20029;-94
2022/04/21 15:17:00;;;;;;;37.40;24.17;;;;;;;;;;5029883;28;20041;-94
2022/04/21 15:19:29;;;;;;;34.97;23.92;;;;;;;;;;5017136;28;20499;-94
2022/04/21 15:21:58;;;;;;;38.15;24.30;;;;;;;;;;5029637;28;20029;-93
2022/04/21 15:24:24;;;;;;;36.63;23.00;;;;;;;;;;5008141;28;20048;-94
2022/04/21 15:26:51;;;;;;;32.58;22.00;;;;;;;;;;5011443;28;20063;-95
2022/04/21 15:29:18;;;;;;;35.90;23.73;;;;;;;;;;5012153;28;20350;-94
2022/04/21 15:31:46;;;;;;;40.13;23.38;;;;;;;;;;5025339;28;20030;-95
2022/04/21 15:34:18;;;;;;;36.80;23.02;;;;;;;;;;5013137;28;20033;-94
2022/04/21 15:36:45;;;;;;;35.75;22.20;;;;;;;;;;5015351;28;20025;-94
2022/04/21 15:39:13;;;;;;;37.30;22.58;;;;;;;;;;5010643;28;20030;-90
2022/04/21 15:41:40;;;;;;;40.58;24.33;;;;;;;;;;5031099;28;20463;-95